Time;durP1;ratioP1;P1;durP2;ratioP2;P2;SDS_P1;SDS_P2;PMS_P1;PMS_P2;Temp;Humidity;BMP_temperature;BMP_pressure;BME280_temperature;BME280_humidity;BME280_pressure;Samples;Min_cycle;Max_cycle;Signal;HPM_P1;HPM_P2
2023/12/07 00:01:03;;;;;;;32.57;14.97;;;;;;;;;;6207213;23;20221;-93
2023/12/07 00:04:14;;;;;;;33.53;15.53;;;;;;;;;;6205178;23;20492;-92
2023/12/07 00:07:19;;;;;;;28.20;14.53;;;;;;;;;;6197851;23;20220;-92
2023/12/07 00:10:25;;;;;;;32.13;14.90;;;;;;;;;;6203333;23;20168;-92
2023/12/07 00:13:30;;;;;;;34.37;15.03;;;;;;;;;;6204213;23;20192;-92
2023/12/07 00:16:37;;;;;;;28.57;14.00;;;;;;;;;;6206924;23;20168;-91
2023/12/07 00:19:45;;;;;;;38.37;16.77;;;;;;;;;;6203370;23;20191;-90
2023/12/07 00:22:50;;;;;;;34.83;15.97;;;;;;;;;;6201735;23;20152;-91
2023/12/07 00:25:55;;;;;;;35.67;15.97;;;;;;;;;;6202014;23;20167;-92
2023/12/07 00:29:01;;;;;;;30.17;14.87;;;;;;;;;;6202996;23;20215;-91
2023/12/07 00:32:17;;;;;;;30.00;14.97;;;;;;;;;;6199901;23;20195;-90
2023/12/07 00:35:24;;;;;;;34.87;15.20;;;;;;;;;;6201172;23;20151;-91
2023/12/07 00:38:32;;;;;;;32.30;15.30;;;;;;;;;;6190331;23;20225;-92
2023/12/07 00:41:37;;;;;;;34.07;15.63;;;;;;;;;;6200162;23;20210;-92
2023/12/07 00:44:42;;;;;;;29.60;14.20;;;;;;;;;;6201256;23;20199;-93
2023/12/07 00:47:47;;;;;;;29.03;14.30;;;;;;;;;;6199607;23;20168;-92
2023/12/07 00:50:54;;;;;;;34.77;15.27;;;;;;;;;;6200485;23;20172;-94
2023/12/07 00:54:00;;;;;;;36.80;16.20;;;;;;;;;;6202702;23;20183;-92
2023/12/07 00:57:05;;;;;;;30.17;14.23;;;;;;;;;;6203919;23;20179;-93
2023/12/07 01:00:11;;;;;;;32.17;14.83;;;;;;;;;;6203523;23;20666;-94
2023/12/07 01:03:16;;;;;;;28.83;13.67;;;;;;;;;;6202084;23;20160;-93
2023/12/07 01:06:23;;;;;;;29.10;13.17;;;;;;;;;;6202092;23;20147;-91
2023/12/07 01:09:28;;;;;;;28.97;13.90;;;;;;;;;;6201763;23;20172;-92
2023/12/07 01:12:36;;;;;;;32.27;14.70;;;;;;;;;;6203790;23;20176;-93
2023/12/07 01:15:41;;;;;;;29.87;13.90;;;;;;;;;;6202130;23;20502;-92
2023/12/07 01:18:47;;;;;;;29.43;14.30;;;;;;;;;;6200219;23;20207;-92
2023/12/07 01:21:54;;;;;;;26.97;13.50;;;;;;;;;;6200623;23;20159;-92
2023/12/07 01:24:59;;;;;;;27.20;13.30;;;;;;;;;;6202781;23;20228;-91
2023/12/07 01:28:05;;;;;;;31.63;13.23;;;;;;;;;;6201649;23;20203;-93
2023/12/07 01:31:10;;;;;;;31.00;14.33;;;;;;;;;;6203857;23;20200;-94
2023/12/07 01:34:16;;;;;;;35.03;15.07;;;;;;;;;;6202689;23;20164;-93
2023/12/07 01:37:23;;;;;;;32.67;14.07;;;;;;;;;;6203896;23;20152;-92
2023/12/07 01:40:29;;;;;;;28.63;13.77;;;;;;;;;;6202860;23;20176;-92
2023/12/07 01:43:34;;;;;;;31.73;14.70;;;;;;;;;;6202923;23;20156;-92
2023/12/07 01:46:39;;;;;;;30.03;14.63;;;;;;;;;;6202219;23;20188;-93
2023/12/07 01:49:45;;;;;;;31.10;13.90;;;;;;;;;;6201109;23;20171;-91
2023/12/07 01:52:54;;;;;;;29.70;14.20;;;;;;;;;;6202367;23;20151;-92
2023/12/07 01:55:59;;;;;;;27.47;13.60;;;;;;;;;;6201123;23;20215;-91
2023/12/07 01:59:05;;;;;;;28.47;13.47;;;;;;;;;;6202595;23;20212;-91
2023/12/07 02:02:10;;;;;;;29.40;14.73;;;;;;;;;;6204447;23;20159;-91
2023/12/07 02:05:15;;;;;;;31.33;14.70;;;;;;;;;;6204648;23;20202;-91
2023/12/07 02:08:22;;;;;;;32.73;15.00;;;;;;;;;;6202645;23;20147;-92
2023/12/07 02:11:27;;;;;;;32.87;13.90;;;;;;;;;;6203034;23;20168;-93
2023/12/07 02:14:34;;;;;;;32.10;13.73;;;;;;;;;;6203691;23;20197;-93
2023/12/07 02:17:43;;;;;;;32.00;14.47;;;;;;;;;;6203054;23;20184;-92
2023/12/07 02:20:52;;;;;;;32.93;13.97;;;;;;;;;;6203007;23;20223;-93
2023/12/07 02:24:00;;;;;;;33.07;14.93;;;;;;;;;;6201794;23;20151;-93
2023/12/07 02:27:06;;;;;;;32.93;15.43;;;;;;;;;;6200989;23;20269;-92
2023/12/07 02:30:12;;;;;;;32.63;14.47;;;;;;;;;;6203649;23;20194;-93
2023/12/07 02:33:17;;;;;;;34.63;14.90;;;;;;;;;;6204397;23;20176;-92
2023/12/07 02:36:24;;;;;;;31.77;14.47;;;;;;;;;;6204208;23;20164;-92
2023/12/07 02:39:29;;;;;;;30.90;14.03;;;;;;;;;;6203126;23;20227;-90
2023/12/07 02:42:36;;;;;;;33.77;14.83;;;;;;;;;;6203580;23;20180;-91
2023/12/07 02:45:42;;;;;;;42.70;17.93;;;;;;;;;;6202249;23;20167;-91
2023/12/07 02:48:48;;;;;;;31.97;14.67;;;;;;;;;;6203904;23;20217;-92
2023/12/07 02:51:52;;;;;;;35.77;15.07;;;;;;;;;;6201543;23;20176;-92
2023/12/07 02:54:58;;;;;;;34.03;14.80;;;;;;;;;;6200769;23;20158;-91
2023/12/07 02:58:06;;;;;;;34.17;15.37;;;;;;;;;;6201015;23;20197;-92
2023/12/07 03:01:11;;;;;;;36.23;15.17;;;;;;;;;;6199858;23;20215;-91
2023/12/07 03:04:17;;;;;;;32.50;15.17;;;;;;;;;;6200826;23;20611;-92
2023/12/07 03:07:22;;;;;;;31.63;14.53;;;;;;;;;;6200550;23;20155;-93
2023/12/07 03:10:27;;;;;;;33.83;15.27;;;;;;;;;;6203121;23;20188;-92
2023/12/07 03:13:34;;;;;;;34.17;15.73;;;;;;;;;;6202813;23;20212;-92
2023/12/07 03:16:40;;;;;;;34.60;14.90;;;;;;;;;;6202436;23;20214;-90
2023/12/07 03:19:45;;;;;;;42.87;17.60;;;;;;;;;;6204124;23;20714;-92
2023/12/07 03:22:50;;;;;;;35.77;16.03;;;;;;;;;;6203981;23;20234;-91
2023/12/07 03:25:55;;;;;;;34.93;16.13;;;;;;;;;;6205098;23;20241;-92
2023/12/07 03:29:02;;;;;;;33.07;14.70;;;;;;;;;;6202307;23;20679;-93
2023/12/07 03:32:08;;;;;;;34.10;14.47;;;;;;;;;;6203026;23;20156;-93
2023/12/07 03:35:14;;;;;;;34.60;14.97;;;;;;;;;;6202221;23;20658;-91
2023/12/07 03:38:19;;;;;;;32.33;14.90;;;;;;;;;;6204304;23;20170;-92
2023/12/07 03:41:24;;;;;;;34.67;15.17;;;;;;;;;;6204162;23;20663;-92
2023/12/07 03:44:31;;;;;;;32.67;14.07;;;;;;;;;;6202357;23;20192;-89
2023/12/07 03:47:36;;;;;;;32.37;14.30;;;;;;;;;;6202289;23;20180;-93
2023/12/07 03:50:41;;;;;;;28.27;14.20;;;;;;;;;;6202478;23;20171;-92
2023/12/07 03:53:46;;;;;;;32.97;15.03;;;;;;;;;;6200955;23;20244;-92
2023/12/07 03:56:51;;;;;;;31.73;14.00;;;;;;;;;;6203226;23;20209;-91
2023/12/07 03:59:59;;;;;;;35.43;15.00;;;;;;;;;;6202253;23;20261;-93
2023/12/07 04:03:06;;;;;;;36.83;15.00;;;;;;;;;;6203603;23;20215;-93
2023/12/07 04:06:11;;;;;;;33.20;14.37;;;;;;;;;;6204888;23;20201;-91
2023/12/07 04:09:16;;;;;;;33.60;14.70;;;;;;;;;;6202106;23;20245;-93
2023/12/07 04:12:22;;;;;;;39.57;14.57;;;;;;;;;;6202140;23;20215;-91
2023/12/07 04:15:30;;;;;;;29.57;13.83;;;;;;;;;;6185447;23;20197;-93
2023/12/07 04:18:34;;;;;;;36.00;14.73;;;;;;;;;;6201257;23;20167;-91
2023/12/07 04:21:40;;;;;;;27.53;13.23;;;;;;;;;;6204015;23;20172;-92
2023/12/07 04:24:45;;;;;;;31.87;13.80;;;;;;;;;;6204158;23;20548;-90
2023/12/07 04:27:50;;;;;;;32.20;14.17;;;;;;;;;;6202973;23;20155;-90
2023/12/07 04:30:57;;;;;;;33.83;14.60;;;;;;;;;;6201141;23;20156;-92
2023/12/07 04:34:03;;;;;;;32.83;14.03;;;;;;;;;;6204948;23;20183;-91
2023/12/07 04:37:08;;;;;;;37.37;16.43;;;;;;;;;;6203106;23;20615;-92
2023/12/07 04:40:14;;;;;;;31.63;14.27;;;;;;;;;;6203340;23;20210;-92
2023/12/07 04:43:19;;;;;;;32.43;14.37;;;;;;;;;;6201699;23;20167;-92
2023/12/07 04:46:25;;;;;;;31.60;14.20;;;;;;;;;;6202374;23;20168;-90
2023/12/07 04:49:30;;;;;;;30.67;13.13;;;;;;;;;;6201675;23;20172;-92
2023/12/07 04:52:36;;;;;;;35.80;13.83;;;;;;;;;;6202252;23;20671;-92
2023/12/07 04:55:46;;;;;;;31.03;14.27;;;;;;;;;;6204809;23;20152;-92
2023/12/07 04:58:53;;;;;;;37.93;15.63;;;;;;;;;;6205326;23;20152;-93
2023/12/07 05:02:00;;;;;;;35.37;14.40;;;;;;;;;;6202219;23;20215;-93
2023/12/07 05:05:06;;;;;;;37.43;15.90;;;;;;;;;;6200306;23;20171;-92
2023/12/07 05:08:11;;;;;;;39.27;15.03;;;;;;;;;;6198195;23;20163;-92
2023/12/07 05:11:16;;;;;;;38.17;15.23;;;;;;;;;;6200165;23;20156;-90
2023/12/07 05:14:21;;;;;;;34.23;13.97;;;;;;;;;;6201661;23;20172;-93
2023/12/07 05:17:28;;;;;;;33.70;15.07;;;;;;;;;;6201022;23;20503;-93
2023/12/07 05:20:34;;;;;;;37.43;14.33;;;;;;;;;;6200196;23;20191;-93
2023/12/07 05:23:39;;;;;;;45.87;15.33;;;;;;;;;;6199783;23;20283;-92
2023/12/07 05:26:45;;;;;;;34.93;15.93;;;;;;;;;;6200744;23;20148;-92
2023/12/07 05:29:52;;;;;;;38.60;15.57;;;;;;;;;;6203208;23;20224;-91
2023/12/07 05:33:00;;;;;;;33.83;14.10;;;;;;;;;;6201749;23;20167;-92
2023/12/07 05:36:06;;;;;;;34.63;15.00;;;;;;;;;;6200160;23;20171;-93
2023/12/07 05:39:13;;;;;;;34.00;14.73;;;;;;;;;;6201043;23;20191;-91
2023/12/07 05:42:18;;;;;;;36.17;15.07;;;;;;;;;;6200830;23;20168;-91
2023/12/07 05:45:24;;;;;;;38.97;15.33;;;;;;;;;;6198821;23;20168;-91
2023/12/07 05:48:30;;;;;;;37.60;15.43;;;;;;;;;;6199327;23;20156;-92
2023/12/07 05:51:35;;;;;;;31.53;14.23;;;;;;;;;;6198967;23;20187;-92
2023/12/07 05:54:43;;;;;;;40.00;15.33;;;;;;;;;;6200462;23;20152;-92
2023/12/07 05:57:48;;;;;;;36.20;14.97;;;;;;;;;;6201687;23;20224;-92
2023/12/07 06:00:53;;;;;;;31.97;14.60;;;;;;;;;;6200478;23;20292;-93
2023/12/07 06:04:00;;;;;;;38.63;16.13;;;;;;;;;;6198174;23;20163;-92
2023/12/07 06:07:05;;;;;;;35.50;15.30;;;;;;;;;;6181435;23;20230;-92
2023/12/07 06:10:11;;;;;;;42.23;15.93;;;;;;;;;;6199965;23;20250;-89
2023/12/07 06:13:16;;;;;;;39.13;15.60;;;;;;;;;;6198411;23;20657;-92
2023/12/07 06:16:21;;;;;;;33.80;14.77;;;;;;;;;;6199853;23;20171;-93
2023/12/07 06:19:49;;;;;;;34.03;15.43;;;;;;;;;;6205754;23;20167;-91
2023/12/07 06:22:57;;;;;;;38.53;15.70;;;;;;;;;;6202479;23;20172;-91
2023/12/07 06:26:05;;;;;;;36.63;15.70;;;;;;;;;;6199277;23;20239;-91
2023/12/07 06:29:11;;;;;;;37.47;14.77;;;;;;;;;;6199639;23;20168;-92
2023/12/07 06:32:17;;;;;;;34.27;14.63;;;;;;;;;;6200697;23;20176;-92
2023/12/07 06:35:23;;;;;;;38.17;15.00;;;;;;;;;;6202019;23;20160;-92
2023/12/07 06:38:31;;;;;;;36.77;15.87;;;;;;;;;;6204568;23;20174;-92
2023/12/07 06:41:36;;;;;;;38.50;15.60;;;;;;;;;;6200917;23;20203;-91
2023/12/07 06:44:42;;;;;;;43.37;16.53;;;;;;;;;;6203276;23;20163;-92
2023/12/07 06:47:47;;;;;;;39.57;16.37;;;;;;;;;;6205243;23;20227;-91
2023/12/07 06:50:54;;;;;;;38.83;16.03;;;;;;;;;;6205919;23;20179;-90
2023/12/07 06:54:02;;;;;;;34.47;16.13;;;;;;;;;;6203896;23;20207;-91
2023/12/07 06:57:08;;;;;;;38.33;15.40;;;;;;;;;;6202262;23;20172;-91
2023/12/07 07:00:14;;;;;;;38.40;17.20;;;;;;;;;;6203384;23;20179;-90
2023/12/07 07:03:28;;;;;;;39.57;16.47;;;;;;;;;;6205290;23;20155;-90
2023/12/07 07:06:35;;;;;;;44.03;15.63;;;;;;;;;;6206319;23;20256;-92
2023/12/07 07:09:42;;;;;;;37.57;16.70;;;;;;;;;;6203128;23;20168;-93
2023/12/07 07:12:48;;;;;;;41.57;17.20;;;;;;;;;;6200482;23;20235;-91
2023/12/07 07:15:54;;;;;;;38.10;16.70;;;;;;;;;;6201602;23;20156;-90
2023/12/07 07:19:00;;;;;;;38.47;15.03;;;;;;;;;;6201721;23;20167;-88
2023/12/07 07:22:05;;;;;;;36.33;16.07;;;;;;;;;;6199314;23;20167;-92
2023/12/07 07:25:12;;;;;;;36.93;14.87;;;;;;;;;;6198445;23;20365;-92
2023/12/07 07:28:17;;;;;;;41.00;16.20;;;;;;;;;;6201060;23;20164;-89
2023/12/07 07:31:23;;;;;;;34.80;16.07;;;;;;;;;;6201968;23;20182;-91
2023/12/07 07:34:28;;;;;;;40.73;16.80;;;;;;;;;;6204311;23;20168;-91
2023/12/07 07:37:35;;;;;;;45.63;17.87;;;;;;;;;;6200174;23;20168;-90
2023/12/07 07:40:42;;;;;;;39.87;16.67;;;;;;;;;;6198704;23;20188;-92
2023/12/07 07:43:48;;;;;;;49.67;17.70;;;;;;;;;;6200473;23;20214;-91
2023/12/07 07:46:53;;;;;;;38.17;15.73;;;;;;;;;;6199248;23;20164;-93
2023/12/07 07:49:59;;;;;;;41.10;17.73;;;;;;;;;;6201682;23;20201;-92
2023/12/07 07:53:04;;;;;;;42.80;17.13;;;;;;;;;;6200746;23;20226;-91
2023/12/07 07:56:11;;;;;;;41.63;16.70;;;;;;;;;;6199095;23;20176;-92
2023/12/07 07:59:16;;;;;;;40.10;17.00;;;;;;;;;;6198640;23;20164;-92
2023/12/07 08:02:22;;;;;;;46.93;17.93;;;;;;;;;;6198175;23;20171;-90
2023/12/07 08:05:27;;;;;;;43.77;17.83;;;;;;;;;;6198741;23;20168;-91
2023/12/07 08:08:33;;;;;;;39.47;16.50;;;;;;;;;;6197616;23;20243;-91
2023/12/07 08:11:40;;;;;;;39.30;16.47;;;;;;;;;;6198772;23;20171;-92
2023/12/07 08:14:45;;;;;;;39.07;16.60;;;;;;;;;;6200579;23;20597;-93
2023/12/07 08:17:50;;;;;;;44.60;17.73;;;;;;;;;;6199336;23;20180;-91
2023/12/07 08:20:56;;;;;;;43.40;16.63;;;;;;;;;;6201922;23;20183;-92
2023/12/07 08:24:01;;;;;;;45.13;17.43;;;;;;;;;;6204765;23;20176;-91
2023/12/07 08:27:09;;;;;;;43.43;18.43;;;;;;;;;;6204401;23;20240;-93
2023/12/07 08:30:14;;;;;;;51.60;20.20;;;;;;;;;;6202579;23;20253;-92
2023/12/07 08:33:19;;;;;;;51.30;20.13;;;;;;;;;;6202101;23;20160;-91
2023/12/07 08:36:25;;;;;;;37.77;18.03;;;;;;;;;;6204124;23;20155;-92
2023/12/07 08:39:31;;;;;;;43.57;16.43;;;;;;;;;;6203805;23;20192;-93
2023/12/07 08:42:38;;;;;;;40.70;16.50;;;;;;;;;;6203795;23;20216;-91
2023/12/07 08:45:43;;;;;;;37.57;16.33;;;;;;;;;;6201572;23;20249;-91
2023/12/07 08:48:53;;;;;;;39.47;16.73;;;;;;;;;;6199179;23;20159;-92
2023/12/07 08:52:00;;;;;;;40.00;17.17;;;;;;;;;;6201142;23;20225;-90
2023/12/07 08:55:06;;;;;;;37.40;15.67;;;;;;;;;;6200215;23;20615;-92
2023/12/07 08:58:12;;;;;;;40.23;17.23;;;;;;;;;;6200831;23;20172;-91
2023/12/07 09:01:18;;;;;;;43.27;17.37;;;;;;;;;;6199871;23;20175;-90
2023/12/07 09:04:23;;;;;;;38.30;17.13;;;;;;;;;;6200098;23;20295;-90
2023/12/07 09:07:29;;;;;;;41.93;17.33;;;;;;;;;;6201497;23;20154;-90
2023/12/07 09:10:34;;;;;;;43.97;18.73;;;;;;;;;;6201736;23;20215;-90
2023/12/07 09:13:42;;;;;;;43.97;17.50;;;;;;;;;;6202285;23;20164;-90
2023/12/07 09:16:47;;;;;;;37.47;16.10;;;;;;;;;;6201751;23;20156;-92
2023/12/07 09:19:54;;;;;;;43.40;16.30;;;;;;;;;;6199559;23;20207;-90
2023/12/07 09:22:59;;;;;;;41.50;17.23;;;;;;;;;;6197920;23;20153;-90
2023/12/07 09:26:04;;;;;;;43.07;17.87;;;;;;;;;;6199873;23;20187;-91
2023/12/07 09:29:12;;;;;;;35.63;16.53;;;;;;;;;;6200542;23;20163;-91
2023/12/07 09:32:17;;;;;;;45.13;16.87;;;;;;;;;;6201888;23;20168;-88
2023/12/07 09:35:22;;;;;;;44.77;17.63;;;;;;;;;;6200117;23;20238;-89
2023/12/07 09:38:28;;;;;;;40.83;16.53;;;;;;;;;;6204053;23;20187;-90
2023/12/07 09:41:33;;;;;;;35.57;15.93;;;;;;;;;;6200329;23;20175;-90
2023/12/07 09:44:40;;;;;;;37.67;16.33;;;;;;;;;;6197931;23;20164;-89
2023/12/07 09:47:45;;;;;;;40.53;16.20;;;;;;;;;;6199915;23;20168;-92
2023/12/07 09:50:53;;;;;;;41.53;16.57;;;;;;;;;;6199270;23;20171;-91
2023/12/07 09:53:58;;;;;;;41.27;16.53;;;;;;;;;;6199554;23;20152;-89
2023/12/07 09:57:05;;;;;;;42.40;17.50;;;;;;;;;;6200760;23;20156;-91
2023/12/07 10:00:14;;;;;;;41.43;16.27;;;;;;;;;;6201397;23;20160;-90
2023/12/07 10:03:23;;;;;;;37.27;16.07;;;;;;;;;;6201828;23;20171;-90
2023/12/07 10:06:28;;;;;;;43.87;17.20;;;;;;;;;;6198680;23;20294;-89
2023/12/07 10:09:34;;;;;;;51.70;19.20;;;;;;;;;;6202280;23;20160;-91
2023/12/07 10:12:47;;;;;;;43.87;17.80;;;;;;;;;;6200835;23;20176;-91
2023/12/07 10:16:06;;;;;;;42.13;18.17;;;;;;;;;;6201847;23;20188;-91
2023/12/07 10:19:17;;;;;;;39.17;16.87;;;;;;;;;;6201558;23;20292;-90
2023/12/07 10:22:22;;;;;;;59.30;22.30;;;;;;;;;;6202859;23;20211;-91
2023/12/07 10:25:28;;;;;;;50.97;22.33;;;;;;;;;;6203272;23;20315;-90
2023/12/07 10:28:43;;;;;;;42.83;20.17;;;;;;;;;;6202354;23;20176;-90
2023/12/07 10:31:51;;;;;;;40.57;16.97;;;;;;;;;;6202521;23;20168;-89
2023/12/07 10:34:58;;;;;;;44.53;18.47;;;;;;;;;;6201251;23;20148;-93
2023/12/07 10:38:04;;;;;;;42.47;17.47;;;;;;;;;;6202237;23;20175;-90
2023/12/07 10:41:12;;;;;;;37.90;16.90;;;;;;;;;;6202240;23;20244;-92
2023/12/07 10:44:18;;;;;;;36.90;16.77;;;;;;;;;;6202476;23;20204;-92
2023/12/07 10:47:27;;;;;;;34.87;16.47;;;;;;;;;;6202017;23;20171;-92
2023/12/07 10:50:34;;;;;;;35.63;16.30;;;;;;;;;;6199313;23;20179;-91
2023/12/07 10:53:43;;;;;;;41.20;16.93;;;;;;;;;;6201759;23;20176;-90
2023/12/07 10:56:50;;;;;;;35.47;16.57;;;;;;;;;;6203328;23;20188;-91
2023/12/07 10:59:56;;;;;;;43.10;17.07;;;;;;;;;;6202163;23;20207;-91
2023/12/07 11:03:03;;;;;;;40.07;17.20;;;;;;;;;;6201721;23;20224;-91
2023/12/07 11:06:09;;;;;;;40.43;18.13;;;;;;;;;;6202004;23;20614;-90
2023/12/07 11:09:18;;;;;;;37.33;16.67;;;;;;;;;;6205540;23;20231;-92
2023/12/07 11:12:27;;;;;;;38.10;17.07;;;;;;;;;;6206358;23;20160;-91
2023/12/07 11:15:32;;;;;;;39.50;17.30;;;;;;;;;;6204145;23;20172;-95
2023/12/07 11:18:38;;;;;;;33.83;16.67;;;;;;;;;;6203809;23;20175;-92
2023/12/07 11:21:44;;;;;;;37.07;16.47;;;;;;;;;;6200841;23;20650;-92
2023/12/07 11:24:57;;;;;;;40.23;17.27;;;;;;;;;;6200841;23;20180;-92
2023/12/07 11:28:03;;;;;;;33.07;15.80;;;;;;;;;;6201412;23;20152;-93
2023/12/07 11:31:08;;;;;;;34.43;16.00;;;;;;;;;;6200836;23;20168;-90
2023/12/07 11:34:15;;;;;;;42.97;17.87;;;;;;;;;;6200139;23;20191;-91
2023/12/07 11:37:21;;;;;;;44.47;18.43;;;;;;;;;;6202251;23;20164;-92
2023/12/07 11:40:26;;;;;;;39.87;17.50;;;;;;;;;;6202373;23;20167;-91
2023/12/07 11:43:39;;;;;;;38.03;15.87;;;;;;;;;;6200498;23;20164;-93
2023/12/07 11:46:46;;;;;;;42.23;17.60;;;;;;;;;;6201079;23;20171;-92
2023/12/07 11:49:53;;;;;;;43.07;18.37;;;;;;;;;;6200614;23;20175;-88
2023/12/07 11:52:59;;;;;;;41.50;17.70;;;;;;;;;;6199519;23;20171;-91
2023/12/07 11:56:07;;;;;;;42.43;17.77;;;;;;;;;;6183132;23;20171;-90
2023/12/07 11:59:12;;;;;;;42.40;18.37;;;;;;;;;;6201457;23;20168;-93
2023/12/07 12:02:17;;;;;;;48.87;18.63;;;;;;;;;;6203287;23;20194;-92
2023/12/07 12:05:27;;;;;;;46.23;18.40;;;;;;;;;;6204169;23;20156;-91
2023/12/07 12:08:33;;;;;;;42.27;18.00;;;;;;;;;;6203826;23;20232;-90
2023/12/07 12:11:38;;;;;;;44.60;18.50;;;;;;;;;;6201578;23;20177;-91
2023/12/07 12:14:44;;;;;;;41.77;18.47;;;;;;;;;;6201276;23;20805;-90
2023/12/07 12:17:50;;;;;;;45.43;19.13;;;;;;;;;;6199386;23;20184;-92
2023/12/07 12:21:10;;;;;;;42.60;17.63;;;;;;;;;;6202388;23;20493;-89
2023/12/07 12:27:35;;;;;;;42.73;18.27;;;;;;;;;;6204481;23;20226;-89
2023/12/07 12:30:42;;;;;;;45.33;19.07;;;;;;;;;;6201697;23;20235;-89
2023/12/07 12:33:47;;;;;;;38.43;17.10;;;;;;;;;;6200483;23;20228;-92
2023/12/07 12:36:57;;;;;;;44.20;19.13;;;;;;;;;;6202096;23;20172;-92
2023/12/07 12:40:11;;;;;;;41.37;18.50;;;;;;;;;;6202769;23;20184;-92
2023/12/07 12:43:16;;;;;;;49.97;20.33;;;;;;;;;;6202687;23;20208;-89
2023/12/07 12:46:22;;;;;;;49.00;19.70;;;;;;;;;;6199584;23;20199;-92
2023/12/07 12:49:40;;;;;;;46.57;19.03;;;;;;;;;;6200266;23;20211;-91
2023/12/07 12:52:49;;;;;;;45.93;18.27;;;;;;;;;;6198840;23;20245;-88
2023/12/07 12:55:55;;;;;;;46.10;18.03;;;;;;;;;;6198950;23;20545;-89
2023/12/07 12:59:01;;;;;;;47.33;18.93;;;;;;;;;;6201106;23;20163;-91
2023/12/07 13:02:08;;;;;;;44.57;19.63;;;;;;;;;;6200359;23;20200;-90
2023/12/07 13:05:15;;;;;;;53.57;18.30;;;;;;;;;;6202650;23;20171;-89
2023/12/07 13:08:24;;;;;;;46.57;19.07;;;;;;;;;;6202434;23;20171;-90
2023/12/07 13:11:30;;;;;;;42.17;17.73;;;;;;;;;;6200824;23;20172;-89
2023/12/07 13:14:37;;;;;;;40.33;17.50;;;;;;;;;;6199343;23;20221;-92
2023/12/07 13:17:47;;;;;;;42.37;17.37;;;;;;;;;;6200859;23;20215;-89
2023/12/07 13:20:52;;;;;;;42.43;17.23;;;;;;;;;;6199908;23;20651;-93
2023/12/07 13:23:59;;;;;;;46.97;17.60;;;;;;;;;;6199841;23;20180;-91
2023/12/07 13:27:05;;;;;;;41.00;17.03;;;;;;;;;;6200486;23;20187;-91
2023/12/07 13:30:12;;;;;;;43.53;17.10;;;;;;;;;;6199958;23;20172;-91
2023/12/07 13:33:18;;;;;;;42.87;17.83;;;;;;;;;;6203665;23;20171;-91
2023/12/07 13:36:26;;;;;;;42.50;18.73;;;;;;;;;;6202383;23;20191;-90
2023/12/07 13:39:32;;;;;;;39.57;17.53;;;;;;;;;;6197193;23;20191;-91
2023/12/07 13:42:41;;;;;;;41.63;15.27;;;;;;;;;;6199192;23;20191;-91
2023/12/07 13:45:46;;;;;;;37.23;16.33;;;;;;;;;;6201693;23;20168;-91
2023/12/07 13:48:51;;;;;;;38.53;16.80;;;;;;;;;;6200331;23;20167;-91
2023/12/07 13:51:56;;;;;;;42.50;18.60;;;;;;;;;;6198189;23;20259;-90
2023/12/07 13:55:04;;;;;;;42.50;17.37;;;;;;;;;;6197790;23;20167;-87
2023/12/07 13:58:09;;;;;;;42.33;18.27;;;;;;;;;;6202592;23;20218;-91
2023/12/07 14:01:15;;;;;;;41.17;17.13;;;;;;;;;;6200833;23;20170;-91
2023/12/07 17:18:00;;;;;;;58.70;21.70;;;;;;;;;;6178963;23;20212;-89
2023/12/07 17:21:05;;;;;;;60.17;19.87;;;;;;;;;;6195895;23;20176;-88
2023/12/07 17:24:12;;;;;;;55.27;19.13;;;;;;;;;;6195358;23;20175;-91
2023/12/07 17:27:17;;;;;;;66.67;22.50;;;;;;;;;;6198063;23;20232;-93
2023/12/07 17:30:23;;;;;;;75.00;25.47;;;;;;;;;;6195904;23;20167;-89
2023/12/07 17:33:30;;;;;;;68.63;22.00;;;;;;;;;;6198479;23;20221;-88
2023/12/07 17:36:36;;;;;;;54.67;18.33;;;;;;;;;;6198072;23;20176;-90
2023/12/07 17:39:42;;;;;;;60.43;19.03;;;;;;;;;;6197827;23;20172;-91
2023/12/07 17:42:47;;;;;;;59.10;17.90;;;;;;;;;;6197655;23;20244;-91
2023/12/07 17:45:53;;;;;;;57.13;18.47;;;;;;;;;;6198094;23;20240;-90
2023/12/07 17:49:01;;;;;;;54.60;18.13;;;;;;;;;;6197528;23;20168;-89
2023/12/07 17:52:06;;;;;;;51.90;17.77;;;;;;;;;;6197558;23;20188;-89
2023/12/07 17:55:12;;;;;;;47.63;17.73;;;;;;;;;;6198667;23;20152;-90
2023/12/07 17:58:20;;;;;;;50.03;18.33;;;;;;;;;;6196763;23;20300;-89
2023/12/07 18:01:25;;;;;;;53.40;20.47;;;;;;;;;;6196400;23;20176;-91
2023/12/07 18:04:34;;;;;;;71.63;25.60;;;;;;;;;;6197305;23;20611;-91
2023/12/07 18:07:39;;;;;;;68.70;23.57;;;;;;;;;;6196899;23;20180;-90
2023/12/07 18:10:46;;;;;;;79.93;26.97;;;;;;;;;;6199086;23;20166;-90
2023/12/07 18:13:51;;;;;;;68.47;23.13;;;;;;;;;;6196882;23;20223;-90
2023/12/07 18:16:57;;;;;;;108.17;35.57;;;;;;;;;;6199644;23;20256;-93
2023/12/07 18:20:04;;;;;;;98.70;30.73;;;;;;;;;;6196552;23;20172;-90
2023/12/07 18:23:09;;;;;;;75.03;27.67;;;;;;;;;;6197937;23;20211;-89
2023/12/07 18:26:15;;;;;;;57.53;21.40;;;;;;;;;;6198023;23;20255;-92
2023/12/07 18:29:20;;;;;;;57.37;20.07;;;;;;;;;;6200197;23;20238;-91
2023/12/07 18:32:25;;;;;;;67.63;23.17;;;;;;;;;;6198951;23;20172;-92
2023/12/07 18:35:31;;;;;;;81.63;28.00;;;;;;;;;;6197372;23;20176;-93
2023/12/07 18:38:36;;;;;;;63.67;20.93;;;;;;;;;;6196724;23;20156;-92
2023/12/07 18:41:42;;;;;;;56.97;20.30;;;;;;;;;;6196064;23;20183;-90
2023/12/07 18:44:48;;;;;;;64.03;23.17;;;;;;;;;;6199599;23;20164;-93
2023/12/07 18:47:54;;;;;;;59.13;20.87;;;;;;;;;;6200880;23;20175;-90
2023/12/07 18:51:00;;;;;;;53.27;20.37;;;;;;;;;;6198491;23;20171;-90
2023/12/07 18:54:06;;;;;;;55.33;20.70;;;;;;;;;;6198757;23;20171;-90
2023/12/07 18:57:11;;;;;;;49.73;17.47;;;;;;;;;;6198289;23;20258;-91
2023/12/07 19:00:16;;;;;;;47.27;15.60;;;;;;;;;;6199308;23;20209;-92
2023/12/07 19:03:22;;;;;;;56.43;19.23;;;;;;;;;;6201711;23;20196;-91
2023/12/07 19:06:30;;;;;;;56.73;19.80;;;;;;;;;;6202563;23;20223;-93
2023/12/07 19:09:35;;;;;;;51.70;18.03;;;;;;;;;;6199576;23;20172;-90
2023/12/07 19:12:40;;;;;;;54.10;19.00;;;;;;;;;;6200459;23;20172;-91
2023/12/07 19:15:46;;;;;;;53.87;19.60;;;;;;;;;;6200825;23;20180;-90
2023/12/07 19:18:51;;;;;;;60.30;20.33;;;;;;;;;;6200424;23;20172;-92
2023/12/07 19:21:59;;;;;;;51.47;18.93;;;;;;;;;;6201687;23;20212;-90
2023/12/07 19:25:06;;;;;;;53.27;19.53;;;;;;;;;;6183282;23;20168;-91
2023/12/07 19:28:11;;;;;;;51.50;18.97;;;;;;;;;;6201514;23;20623;-90
2023/12/07 19:31:16;;;;;;;50.20;18.43;;;;;;;;;;6202649;23;20188;-90
2023/12/07 19:34:22;;;;;;;43.93;16.07;;;;;;;;;;6200739;23;20191;-92
2023/12/07 19:37:29;;;;;;;45.43;16.30;;;;;;;;;;6201037;23;20171;-90
2023/12/07 19:40:34;;;;;;;51.33;19.40;;;;;;;;;;6199970;23;20243;-92
2023/12/07 19:43:40;;;;;;;47.23;18.60;;;;;;;;;;6200905;23;20196;-91
2023/12/07 19:46:45;;;;;;;47.90;18.03;;;;;;;;;;6200212;23;20179;-89
2023/12/07 19:49:50;;;;;;;45.43;17.20;;;;;;;;;;6200869;23;20176;-90
2023/12/07 19:52:57;;;;;;;48.17;17.83;;;;;;;;;;6200990;23;20156;-90
2023/12/07 19:56:02;;;;;;;52.40;20.63;;;;;;;;;;6203701;23;20575;-91
2023/12/07 19:59:08;;;;;;;57.87;19.33;;;;;;;;;;6205854;23;20674;-91
2023/12/07 20:02:15;;;;;;;53.70;21.23;;;;;;;;;;6204077;23;20219;-90
2023/12/07 20:05:22;;;;;;;57.33;19.80;;;;;;;;;;6203569;23;20172;-89
2023/12/07 20:08:30;;;;;;;55.97;20.07;;;;;;;;;;6203805;23;20217;-91
2023/12/07 20:11:38;;;;;;;59.80;21.63;;;;;;;;;;6205176;23;20240;-90
2023/12/07 20:14:44;;;;;;;60.67;22.93;;;;;;;;;;6204448;23;20510;-91
2023/12/07 20:17:49;;;;;;;49.50;19.83;;;;;;;;;;6203239;23;20223;-92
2023/12/07 23:02:16;;;;;;;40.70;15.67;;;;;;;;;;6169854;23;20220;-90
2023/12/07 23:05:25;;;;;;;42.20;16.57;;;;;;;;;;6200907;23;20148;-91
2023/12/07 23:08:29;;;;;;;46.53;17.30;;;;;;;;;;6199428;23;20168;-91
2023/12/07 23:11:35;;;;;;;34.93;15.53;;;;;;;;;;6198974;23;20199;-90
2023/12/07 23:14:41;;;;;;;36.67;14.13;;;;;;;;;;6199479;23;20200;-89
2023/12/07 23:17:47;;;;;;;39.40;15.60;;;;;;;;;;6201212;23;20244;-91
2023/12/07 23:20:52;;;;;;;37.80;13.33;;;;;;;;;;6200280;23;20183;-90
2023/12/07 23:23:58;;;;;;;31.40;13.57;;;;;;;;;;6201631;23;20200;-90
2023/12/07 23:27:03;;;;;;;38.30;13.83;;;;;;;;;;6201228;23;20291;-90
2023/12/07 23:30:09;;;;;;;37.20;15.10;;;;;;;;;;6200465;23;20171;-90
2023/12/07 23:33:16;;;;;;;37.50;15.00;;;;;;;;;;6201766;23;20171;-89
2023/12/07 23:36:24;;;;;;;35.90;14.00;;;;;;;;;;6201965;23;20231;-91
2023/12/07 23:39:29;;;;;;;47.67;19.03;;;;;;;;;;6200461;23;20241;-89
2023/12/07 23:42:34;;;;;;;39.57;15.60;;;;;;;;;;6201516;23;20168;-90
2023/12/07 23:45:39;;;;;;;37.67;13.90;;;;;;;;;;6199260;23;20485;-91
2023/12/07 23:48:48;;;;;;;35.83;12.93;;;;;;;;;;6198196;23;20155;-90
2023/12/07 23:51:54;;;;;;;38.43;15.30;;;;;;;;;;6197510;23;20608;-94
2023/12/07 23:54:59;;;;;;;37.23;15.10;;;;;;;;;;6197909;23;20171;-91
2023/12/07 23:58:04;;;;;;;37.13;13.77;;;;;;;;;;6197951;23;20168;-91
